Time,TemperatureF,DewpointF,PressureIn,WindDirection,WindDirectionDegrees,WindSpeedMPH,WindSpeedGustMPH,Humidity,HourlyPrecipIn,Conditions,Clouds,dailyrainin,SoftwareType,DateUTC
2013-08-08 02:42:00,61.0,59.0,29.97,North,0,0.0,-999.0,93,-99.99,,,-99.99,,2013-08-08 06:42:00,
2013-08-08 03:02:00,61.0,59.0,29.97,North,0,0.0,-999.0,93,-99.99,,,-99.99,,2013-08-08 07:02:00,
2013-08-08 03:43:00,59.0,57.0,29.99,North,0,0.0,-999.0,93,-99.99,,,-99.99,,2013-08-08 07:43:00,
2013-08-08 03:53:00,59.0,57.0,29.98,North,0,0.0,-999.0,93,-99.99,,,-99.99,,2013-08-08 07:53:00,
2013-08-08 04:01:00,57.0,57.0,29.99,North,0,0.0,-999.0,100,-99.99,,,-99.99,,2013-08-08 08:01:00,
2013-08-08 04:43:00,57.0,57.0,29.99,North,0,0.0,-999.0,100,-99.99,,,-99.99,,2013-08-08 08:43:00,
2013-08-08 07:11:00,54.0,54.0,30.02,North,0,0.0,-999.0,100,-99.99,,,-99.99,,2013-08-08 11:11:00,
2013-08-08 07:21:00,55.0,54.0,30.02,North,0,0.0,-999.0,93,-99.99,,,-99.99,,2013-08-08 11:21:00,
2013-08-08 07:32:00,55.0,54.0,30.02,North,0,0.0,-999.0,93,-99.99,,,-99.99,,2013-08-08 11:32:00,
2013-08-08 07:52:00,54.0,54.0,30.02,North,0,0.0,-999.0,100,-99.99,,,-99.99,,2013-08-08 11:52:00,
2013-08-08 08:01:00,54.0,54.0,30.02,North,0,0.0,-999.0,100,-99.99,,,-99.99,,2013-08-08 12:01:00,
2013-08-08 08:21:00,57.0,57.0,30.02,North,350,3.0,-999.0,100,-99.99,,,-99.99,,2013-08-08 12:21:00,
2013-08-08 08:52:00,59.0,55.0,30.03,NNE,30,3.0,-999.0,87,-99.99,,,-99.99,,2013-08-08 12:52:00,
2013-08-08 09:01:00,61.0,55.0,30.03,NE,40,3.0,-999.0,82,-99.99,,,-99.99,,2013-08-08 13:01:00,
2013-08-08 09:22:00,63.0,55.0,30.03,NNE,20,6.0,-999.0,77,-99.99,,,-99.99,,2013-08-08 13:22:00,
2013-08-08 09:32:00,63.0,55.0,30.03,NNE,20,6.0,-999.0,77,-99.99,,,-99.99,,2013-08-08 13:32:00,
2013-08-08 09:52:00,63.0,55.0,30.03,NNE,20,6.0,-999.0,77,-99.99,,,-99.99,,2013-08-08 13:52:00,
2013-08-08 10:02:00,63.0,55.0,30.03,NNE,20,6.0,-999.0,77,-99.99,,,-99.99,,2013-08-08 14:02:00,
2013-08-08 10:22:00,66.0,54.0,30.04,NE,40,5.0,-999.0,63,-99.99,,,-99.99,,2013-08-08 14:22:00,
2013-08-08 10:32:00,66.0,52.0,30.04,ENE,70,6.0,-999.0,59,-99.99,,,-99.99,,2013-08-08 14:32:00,
2013-08-08 10:43:00,66.0,52.0,30.04,ENE,70,6.0,-999.0,59,-99.99,,,-99.99,,2013-08-08 14:43:00,
2013-08-08 10:52:00,66.0,52.0,30.04,ENE,70,6.0,-999.0,59,-99.99,,,-99.99,,2013-08-08 14:52:00,
2013-08-08 11:01:00,68.0,52.0,30.05,East,100,3.0,-999.0,56,-99.99,,,-99.99,,2013-08-08 15:01:00,
2013-08-08 11:11:00,68.0,52.0,30.05,East,100,3.0,-999.0,56,-99.99,,,-99.99,,2013-08-08 15:11:00,
2013-08-08 11:22:00,68.0,52.0,30.05,East,100,3.0,-999.0,56,-99.99,,,-99.99,,2013-08-08 15:22:00,
2013-08-08 11:52:00,70.0,52.0,30.05,ENE,70,3.0,-999.0,52,-99.99,,,-99.99,,2013-08-08 15:52:00,
2013-08-08 12:11:00,70.0,52.0,30.05,North,0,0.0,-999.0,52,-99.99,,,-99.99,,2013-08-08 16:11:00,
2013-08-08 12:21:00,70.0,52.0,30.05,North,0,0.0,-999.0,52,-99.99,,,-99.99,,2013-08-08 16:21:00,
2013-08-08 12:32:00,72.0,52.0,30.04,NE,50,7.0,-999.0,49,-99.99,,,-99.99,,2013-08-08 16:32:00,
2013-08-08 13:02:00,72.0,52.0,30.04,NNW,340,6.0,-999.0,49,-99.99,,,-99.99,,2013-08-08 17:02:00,
2013-08-08 18:43:00,73.0,55.0,29.99,ESE,110,9.0,-999.0,53,-99.99,,,-99.99,,2013-08-08 22:43:00,
2013-08-08 19:01:00,73.0,55.0,30.00,East,100,12.0,-999.0,53,-99.99,,,-99.99,,2013-08-08 23:01:00,
2013-08-08 20:01:00,70.0,54.0,29.99,East,90,7.0,-999.0,56,-99.99,,,-99.99,,2013-08-09 00:01:00,
2013-08-08 20:32:00,68.0,54.0,30.00,East,90,5.0,-999.0,59,-99.99,,,-99.99,,2013-08-09 00:32:00,
2013-08-08 20:43:00,66.0,54.0,30.00,East,80,3.0,-999.0,63,-99.99,,,-99.99,,2013-08-09 00:43:00,